createdAt,value
2018-03-23T00:00:37.150Z,1.10
2018-03-23T00:03:04.682Z,1.10
2018-03-23T00:05:32.183Z,1.10
2018-03-23T00:07:59.741Z,1.10
2018-03-23T00:10:27.274Z,1.10
2018-03-23T00:12:54.758Z,1.10
2018-03-23T00:15:23.051Z,1.00
2018-03-23T00:17:50.586Z,1.00
2018-03-23T00:20:18.868Z,0.90
2018-03-23T00:22:47.143Z,0.90
2018-03-23T00:25:15.426Z,0.90
2018-03-23T00:27:42.916Z,0.90
2018-03-23T00:30:10.417Z,0.90
2018-03-23T00:32:37.923Z,0.90
2018-03-23T00:35:05.426Z,0.90
2018-03-23T00:37:32.929Z,1.00
2018-03-23T00:40:00.420Z,1.00
2018-03-23T00:42:28.729Z,1.00
2018-03-23T00:44:56.215Z,1.00
2018-03-23T00:47:23.715Z,1.00
2018-03-23T00:49:51.235Z,1.00
2018-03-23T00:52:18.762Z,1.00
2018-03-23T00:54:46.293Z,1.00
2018-03-23T00:57:13.787Z,1.00
2018-03-23T00:59:41.325Z,1.00
2018-03-23T01:02:08.853Z,1.00
2018-03-23T01:04:36.359Z,1.00
2018-03-23T01:07:04.643Z,1.10
2018-03-23T01:09:32.907Z,1.20
2018-03-23T01:12:00.412Z,1.10
2018-03-23T01:14:27.925Z,1.20
2018-03-23T01:16:55.461Z,1.20
2018-03-23T01:19:22.960Z,1.20
2018-03-23T01:21:50.475Z,1.20
2018-03-23T01:24:17.982Z,1.10
2018-03-23T01:26:45.491Z,1.10
2018-03-23T01:29:13.027Z,1.00
2018-03-23T01:31:41.731Z,1.00
2018-03-23T01:34:09.242Z,1.00
2018-03-23T01:36:36.779Z,1.00
2018-03-23T01:39:04.312Z,1.00
2018-03-23T01:41:31.861Z,1.10
2018-03-23T01:43:59.354Z,1.00
2018-03-23T01:46:26.889Z,1.00
2018-03-23T01:48:54.410Z,1.00
2018-03-23T01:51:21.902Z,1.00
2018-03-23T01:53:49.427Z,1.00
2018-03-23T01:56:16.913Z,1.10
2018-03-23T01:58:44.435Z,1.10
2018-03-23T02:01:11.942Z,1.10
2018-03-23T02:03:39.474Z,1.00
2018-03-23T02:06:06.998Z,1.00
2018-03-23T02:08:34.517Z,1.00
2018-03-23T02:11:02.020Z,1.00
2018-03-23T02:13:29.528Z,1.00
2018-03-23T02:15:57.063Z,1.00
2018-03-23T02:18:24.567Z,1.00
2018-03-23T02:20:52.081Z,1.00
2018-03-23T02:23:20.366Z,1.00
2018-03-23T02:25:48.633Z,1.10
2018-03-23T02:28:16.165Z,1.00
2018-03-23T02:30:43.711Z,1.10
2018-03-23T02:33:11.235Z,1.10
2018-03-23T02:35:38.784Z,1.10
2018-03-23T02:38:06.311Z,1.00
2018-03-23T02:40:33.809Z,1.00
2018-03-23T02:43:01.323Z,1.00
2018-03-23T02:45:28.841Z,1.00
2018-03-23T02:47:56.359Z,1.00
2018-03-23T02:50:23.868Z,1.00
2018-03-23T02:52:51.383Z,1.00
2018-03-23T02:55:18.918Z,0.90
2018-03-23T02:57:46.435Z,0.90
2018-03-23T03:00:13.952Z,0.90
2018-03-23T03:02:41.471Z,0.90
2018-03-23T03:05:08.954Z,0.90
2018-03-23T03:07:36.504Z,0.90
2018-03-23T03:10:04.023Z,0.90
2018-03-23T03:12:31.550Z,0.90
2018-03-23T03:14:59.843Z,0.90
2018-03-23T03:17:28.105Z,0.90
2018-03-23T03:19:56.413Z,0.90
2018-03-23T03:22:23.905Z,0.90
2018-03-23T03:24:51.421Z,0.90
2018-03-23T03:27:19.694Z,1.00
2018-03-23T03:29:47.178Z,1.00
2018-03-23T03:32:14.704Z,1.10
2018-03-23T03:34:42.202Z,1.00
2018-03-23T03:37:09.724Z,1.00
2018-03-23T03:39:37.244Z,1.00
2018-03-23T03:42:04.764Z,0.90
2018-03-23T03:44:32.271Z,0.90
2018-03-23T03:46:59.794Z,0.90
2018-03-23T03:49:27.328Z,0.90
2018-03-23T03:51:54.842Z,0.90
2018-03-23T03:54:22.372Z,0.90
2018-03-23T03:56:49.906Z,0.90
2018-03-23T03:59:17.421Z,0.90
2018-03-23T04:01:44.966Z,0.90
2018-03-23T04:04:12.456Z,0.90
2018-03-23T04:06:39.970Z,0.90
2018-03-23T04:09:07.474Z,1.00
2018-03-23T04:11:35.732Z,1.00
2018-03-23T04:14:03.290Z,1.00
2018-03-23T04:16:30.776Z,1.00
2018-03-23T04:18:58.273Z,1.00
2018-03-23T04:21:25.779Z,1.00
2018-03-23T04:23:53.273Z,1.00
2018-03-23T04:26:21.580Z,0.90
2018-03-23T04:28:49.112Z,0.90
2018-03-23T04:31:16.613Z,0.90
2018-03-23T04:33:44.137Z,0.90
2018-03-23T04:36:11.639Z,0.90
2018-03-23T04:38:39.166Z,0.90
2018-03-23T04:41:06.703Z,0.90
2018-03-23T04:43:34.195Z,0.90
2018-03-23T04:46:01.705Z,0.90
2018-03-23T04:48:29.249Z,0.90
2018-03-23T04:50:56.753Z,0.90
2018-03-23T04:53:24.330Z,0.90
2018-03-23T04:55:51.845Z,1.00
2018-03-23T04:58:19.348Z,1.00
2018-03-23T05:00:46.853Z,1.00
2018-03-23T05:03:14.376Z,1.00
2018-03-23T05:05:41.942Z,1.00
2018-03-23T05:08:09.455Z,1.00
2018-03-23T05:10:37.016Z,1.00
2018-03-23T05:13:04.504Z,1.10
2018-03-23T05:15:31.992Z,1.10
2018-03-23T05:17:59.514Z,1.10
2018-03-23T05:20:27.038Z,1.10
2018-03-23T05:22:54.574Z,1.10
2018-03-23T05:25:22.094Z,1.10
2018-03-23T05:27:49.576Z,1.10
2018-03-23T05:30:17.110Z,1.10
2018-03-23T05:32:45.376Z,1.10
2018-03-23T05:35:12.934Z,1.10
2018-03-23T05:37:40.444Z,1.10
2018-03-23T05:40:07.972Z,1.10
2018-03-23T05:42:35.461Z,1.10
2018-03-23T05:45:02.963Z,1.10
2018-03-23T05:47:30.470Z,1.10
2018-03-23T05:49:58.043Z,1.10
2018-03-23T05:52:25.597Z,1.10
2018-03-23T05:54:53.110Z,1.10
2018-03-23T05:57:20.633Z,1.10
2018-03-23T05:59:48.125Z,1.10
2018-03-23T06:02:15.625Z,1.10
2018-03-23T06:04:43.152Z,1.10
2018-03-23T06:07:10.645Z,1.10
2018-03-23T06:09:38.185Z,1.10
2018-03-23T06:12:05.701Z,1.10
2018-03-23T06:14:33.213Z,1.20
2018-03-23T06:17:00.715Z,1.20
2018-03-23T06:19:28.219Z,1.20
2018-03-23T06:21:55.765Z,1.20
2018-03-23T06:24:23.249Z,1.20
2018-03-23T06:26:50.769Z,1.30
2018-03-23T06:29:18.290Z,1.30
2018-03-23T06:31:45.874Z,1.30
2018-03-23T06:34:13.418Z,1.30
2018-03-23T06:36:40.927Z,1.30
2018-03-23T06:39:08.490Z,1.40
2018-03-23T06:41:36.025Z,1.40
2018-03-23T06:44:04.326Z,1.40
2018-03-23T06:46:31.851Z,1.40
2018-03-23T06:48:59.384Z,1.40
2018-03-23T06:51:26.884Z,1.40
2018-03-23T06:53:54.430Z,1.50
2018-03-23T06:56:21.925Z,1.50
2018-03-23T06:58:49.466Z,1.50
2018-03-23T07:01:17.001Z,1.50
2018-03-23T07:03:44.497Z,1.50
2018-03-23T07:06:12.024Z,1.50
2018-03-23T07:08:40.288Z,1.60
2018-03-23T07:11:07.935Z,1.60
2018-03-23T07:13:35.437Z,1.70
2018-03-23T07:16:02.948Z,1.70
2018-03-23T07:18:30.470Z,1.70
2018-03-23T07:20:57.972Z,1.80
2018-03-23T07:23:25.518Z,1.90
2018-03-23T07:25:53.020Z,2.00
2018-03-23T07:28:20.535Z,2.00
2018-03-23T07:30:48.067Z,2.00
2018-03-23T07:33:16.337Z,2.10
2018-03-23T07:35:43.864Z,2.10
2018-03-23T07:38:11.370Z,2.10
2018-03-23T07:40:38.877Z,2.20
2018-03-23T07:43:06.410Z,2.30
2018-03-23T07:45:33.935Z,2.40
2018-03-23T07:48:01.436Z,2.40
2018-03-23T07:50:28.957Z,2.40
2018-03-23T07:52:56.456Z,2.50
2018-03-23T07:55:24.756Z,2.60
2018-03-23T07:57:52.276Z,2.60
2018-03-23T08:00:19.783Z,2.70
2018-03-23T08:02:47.290Z,2.70
2018-03-23T08:05:14.802Z,2.80
2018-03-23T08:07:42.319Z,2.80
2018-03-23T08:10:09.823Z,3.00
2018-03-23T08:12:37.324Z,3.00
2018-03-23T08:15:04.840Z,3.10
2018-03-23T08:17:33.113Z,3.30
2018-03-23T08:20:00.655Z,3.30
2018-03-23T08:22:28.158Z,3.40
2018-03-23T08:24:55.647Z,3.40
2018-03-23T08:27:23.185Z,3.50
2018-03-23T08:29:51.451Z,3.60
2018-03-23T08:32:19.730Z,3.60
2018-03-23T08:34:48.001Z,3.70
2018-03-23T08:37:15.521Z,3.60
2018-03-23T08:39:43.014Z,3.70
2018-03-23T08:42:10.532Z,3.80
2018-03-23T08:44:38.098Z,3.90
2018-03-23T08:47:05.601Z,3.90
2018-03-23T08:49:33.128Z,3.80
2018-03-23T08:52:00.642Z,3.80
2018-03-23T08:54:28.145Z,3.90
2018-03-23T08:56:55.687Z,3.80
2018-03-23T08:59:23.209Z,3.80
2018-03-23T09:01:50.733Z,3.90
2018-03-23T09:04:18.240Z,3.90
2018-03-23T09:06:45.743Z,3.90
2018-03-23T09:09:13.259Z,3.90
2018-03-23T09:11:40.749Z,4.00
2018-03-23T09:14:08.280Z,4.00
2018-03-23T09:16:35.830Z,4.10
2018-03-23T09:19:03.327Z,4.20
2018-03-23T09:21:30.843Z,4.30
2018-03-23T09:23:58.355Z,4.40
2018-03-23T09:26:25.915Z,4.50
2018-03-23T09:28:53.430Z,4.50
2018-03-23T09:31:20.930Z,4.60
2018-03-23T09:33:48.455Z,4.70
2018-03-23T09:36:16.025Z,4.80
2018-03-23T09:38:43.572Z,4.90
2018-03-23T09:41:11.081Z,5.00
2018-03-23T09:43:38.583Z,5.00
2018-03-23T09:46:06.103Z,5.10
2018-03-23T09:48:33.590Z,5.10
2018-03-23T09:51:01.200Z,5.20
2018-03-23T09:53:28.735Z,5.50
2018-03-23T09:55:56.251Z,5.80
2018-03-23T09:58:23.742Z,6.20
2018-03-23T10:00:51.255Z,6.20
2018-03-23T10:03:18.766Z,6.30
2018-03-23T10:05:46.539Z,6.50
2018-03-23T10:08:14.060Z,6.40
2018-03-23T10:10:41.602Z,6.80
2018-03-23T10:13:09.871Z,7.10
2018-03-23T10:15:38.131Z,7.30
2018-03-23T10:18:05.651Z,7.20
2018-03-23T10:20:33.157Z,7.30
2018-03-23T10:23:00.666Z,7.20
2018-03-23T10:25:28.175Z,7.30
2018-03-23T10:27:55.670Z,7.40
2018-03-23T10:30:23.987Z,7.70
2018-03-23T10:32:51.510Z,7.60
2018-03-23T10:35:19.018Z,7.70
2018-03-23T10:37:46.551Z,7.80
2018-03-23T10:40:14.051Z,7.80
2018-03-23T10:42:42.048Z,7.90
2018-03-23T10:45:09.554Z,8.00
2018-03-23T10:47:37.098Z,8.30
2018-03-23T10:50:04.636Z,8.50
2018-03-23T10:52:32.182Z,8.60
2018-03-23T10:54:59.714Z,8.60
2018-03-23T10:57:27.449Z,8.70
2018-03-23T10:59:54.950Z,8.60
2018-03-23T11:05:23.908Z,8.90
2018-03-23T11:07:51.454Z,8.90
2018-03-23T11:10:18.954Z,8.80
2018-03-23T11:12:46.456Z,8.70
2018-03-23T11:15:14.043Z,8.60
2018-03-23T11:17:41.539Z,8.50
2018-03-23T11:20:09.833Z,8.80
2018-03-23T11:22:38.085Z,9.10
2018-03-23T11:25:05.598Z,9.10
2018-03-23T11:27:33.107Z,9.10
2018-03-23T11:30:00.639Z,9.30
2018-03-23T11:32:28.168Z,9.20
2018-03-23T11:34:55.675Z,8.90
2018-03-23T11:37:23.971Z,8.90
2018-03-23T11:39:51.470Z,8.80
2018-03-23T11:42:19.804Z,8.70
2018-03-23T11:44:48.122Z,8.80
2018-03-23T11:47:15.958Z,8.80
2018-03-23T11:49:43.475Z,8.80
2018-03-23T11:52:10.987Z,8.70
2018-03-23T11:54:38.519Z,8.70
2018-03-23T11:57:06.027Z,8.80
2018-03-23T11:59:33.537Z,8.70
2018-03-23T12:02:01.083Z,8.70
2018-03-23T12:04:28.573Z,9.00
2018-03-23T12:06:56.092Z,9.30
2018-03-23T12:09:23.633Z,9.40
2018-03-23T12:11:51.129Z,9.40
2018-03-23T12:14:19.478Z,9.40
2018-03-23T12:16:47.695Z,9.30
2018-03-23T12:19:15.986Z,9.20
2018-03-23T12:21:44.248Z,9.20
2018-03-23T12:24:11.755Z,9.10
2018-03-23T12:26:39.275Z,9.20
2018-03-23T12:29:06.766Z,9.20
2018-03-23T12:31:34.278Z,9.30
2018-03-23T12:34:01.778Z,9.50
2018-03-23T12:36:29.268Z,9.80
2018-03-23T12:38:56.777Z,9.90
2018-03-23T12:41:24.293Z,10.00
2018-03-23T12:43:51.819Z,9.80
2018-03-23T12:46:19.343Z,10.00
2018-03-23T12:48:47.149Z,10.40
2018-03-23T12:51:14.673Z,10.50
2018-03-23T12:53:42.170Z,10.40
2018-03-23T12:56:09.696Z,10.40
2018-03-23T12:58:37.203Z,10.60
2018-03-23T13:01:05.474Z,10.20
2018-03-23T13:03:33.012Z,10.20
2018-03-23T13:06:00.565Z,10.20
2018-03-23T13:08:28.075Z,10.40
2018-03-23T13:10:56.342Z,10.70
2018-03-23T13:13:23.864Z,10.60
2018-03-23T13:15:51.364Z,10.70
2018-03-23T13:18:18.886Z,10.60
2018-03-23T13:20:46.422Z,10.60
2018-03-23T13:23:14.732Z,10.70
2018-03-23T13:25:42.227Z,10.70
2018-03-23T13:28:09.756Z,10.70
2018-03-23T13:30:37.342Z,10.80
2018-03-23T13:33:05.635Z,10.70
2018-03-23T13:35:33.148Z,10.70
2018-03-23T13:38:00.684Z,10.90
2018-03-23T13:40:28.206Z,11.20
2018-03-23T13:42:55.731Z,11.30
2018-03-23T13:45:24.040Z,11.20
2018-03-23T13:47:51.549Z,11.20
2018-03-23T13:50:19.164Z,11.10
2018-03-23T13:52:46.769Z,11.10
2018-03-23T13:55:14.278Z,11.00
2018-03-23T13:57:41.808Z,11.20
2018-03-23T14:00:14.885Z,11.30
2018-03-23T14:02:42.421Z,11.40
2018-03-23T14:05:09.953Z,11.50
2018-03-23T14:07:37.488Z,11.80
2018-03-23T14:10:05.031Z,12.00
2018-03-23T14:12:33.300Z,11.80
2018-03-23T14:15:00.834Z,11.80
2018-03-23T14:17:28.390Z,11.80
2018-03-23T14:19:55.921Z,11.90
2018-03-23T14:22:23.479Z,12.10
2018-03-23T14:24:51.027Z,12.40
2018-03-23T14:27:18.550Z,12.70
2018-03-23T14:29:46.086Z,13.00
2018-03-23T14:32:13.586Z,13.30
2018-03-23T14:34:41.130Z,13.20
2018-03-23T14:37:08.658Z,13.40
2018-03-23T14:39:36.204Z,13.60
2018-03-23T14:42:03.719Z,13.80
2018-03-23T14:44:31.230Z,13.80
2018-03-23T14:46:58.877Z,13.80
2018-03-23T14:49:27.116Z,14.10
2018-03-23T14:51:54.638Z,14.10
2018-03-23T14:54:22.158Z,14.00
2018-03-23T14:56:50.424Z,14.70
2018-03-23T14:59:18.787Z,14.70
2018-03-23T15:01:46.307Z,14.70
2018-03-23T15:04:13.802Z,15.00
2018-03-23T15:06:41.348Z,15.30
2018-03-23T15:09:08.858Z,15.40
2018-03-23T15:11:37.162Z,15.50
2018-03-23T15:14:15.476Z,15.50
2018-03-23T15:16:43.038Z,15.80
2018-03-23T15:19:10.552Z,15.70
2018-03-23T15:21:38.072Z,15.70
2018-03-23T15:24:05.590Z,15.60
2018-03-23T15:26:33.084Z,15.50
2018-03-23T15:29:00.640Z,15.60
2018-03-23T15:31:28.918Z,15.90
2018-03-23T15:33:56.493Z,15.90
2018-03-23T15:36:24.221Z,16.00
2018-03-23T15:38:51.769Z,16.00
2018-03-23T15:41:19.293Z,16.10
2018-03-23T15:43:46.816Z,15.60
2018-03-23T15:46:14.332Z,15.30
2018-03-23T15:48:41.851Z,14.90
2018-03-23T15:51:09.389Z,14.00
2018-03-23T15:53:36.901Z,13.00
2018-03-23T15:56:05.228Z,11.40
2018-03-23T15:58:32.738Z,11.30
2018-03-23T16:01:00.252Z,10.80
2018-03-23T16:03:27.783Z,10.40
2018-03-23T16:05:55.374Z,10.00
2018-03-23T16:08:22.930Z,9.60
2018-03-23T16:10:50.528Z,9.30
2018-03-23T16:13:18.117Z,9.10
2018-03-23T16:15:45.594Z,9.00
2018-03-23T16:18:13.152Z,8.70
2018-03-23T16:20:40.648Z,8.60
2018-03-23T16:23:08.310Z,8.40
2018-03-23T16:25:35.831Z,8.20
2018-03-23T16:28:03.433Z,8.10
2018-03-23T16:30:31.084Z,8.00
2018-03-23T16:32:58.710Z,7.90
2018-03-23T16:35:26.289Z,7.90
2018-03-23T16:37:53.830Z,7.90
2018-03-23T16:40:21.378Z,7.80
2018-03-23T16:42:48.926Z,7.80
2018-03-23T16:45:16.429Z,7.70
2018-03-23T16:47:43.987Z,7.60
2018-03-23T16:50:11.633Z,7.50
2018-03-23T16:52:39.950Z,7.40
2018-03-23T16:55:07.497Z,7.40
2018-03-23T16:57:35.063Z,7.30
2018-03-23T17:00:02.663Z,7.20
2018-03-23T17:02:30.303Z,7.10
2018-03-23T17:04:57.843Z,7.10
2018-03-23T17:07:25.381Z,7.00
2018-03-23T17:09:52.916Z,6.90
2018-03-23T17:12:21.241Z,6.60
2018-03-23T17:14:48.799Z,6.60
2018-03-23T17:17:16.493Z,6.50
2018-03-23T17:19:44.105Z,6.40
2018-03-23T17:22:11.975Z,6.30
2018-03-23T17:24:39.531Z,6.20
2018-03-23T17:27:07.955Z,6.20
2018-03-23T17:29:36.595Z,6.10
2018-03-23T17:32:05.032Z,6.20
2018-03-23T17:34:32.600Z,6.10
2018-03-23T17:37:00.257Z,6.20
2018-03-23T17:39:27.893Z,6.20
2018-03-23T17:41:56.541Z,6.00
2018-03-23T17:44:24.216Z,5.90
2018-03-23T17:46:51.777Z,5.90
2018-03-23T17:49:19.297Z,5.80
2018-03-23T17:51:46.976Z,5.70
2018-03-23T17:54:15.446Z,5.50
2018-03-23T17:56:43.031Z,5.50
2018-03-23T17:59:10.628Z,5.50
2018-03-23T18:01:38.326Z,5.60
2018-03-23T18:04:05.914Z,5.50
2018-03-23T18:06:33.542Z,5.50
2018-03-23T18:09:01.138Z,5.50
2018-03-23T18:11:28.806Z,5.40
2018-03-23T18:13:56.376Z,5.40
2018-03-23T18:16:24.032Z,5.40
2018-03-23T18:18:51.662Z,5.30
2018-03-23T18:21:19.224Z,5.30
2018-03-23T18:23:46.771Z,5.20
2018-03-23T18:26:14.440Z,5.20
2018-03-23T18:28:41.974Z,5.10
2018-03-23T18:31:09.593Z,5.10
2018-03-23T18:33:37.312Z,5.10
2018-03-23T18:36:04.989Z,5.10
2018-03-23T18:38:32.562Z,5.10
2018-03-23T18:41:00.101Z,5.10
2018-03-23T18:43:27.696Z,5.10
2018-03-23T18:45:55.249Z,5.00
2018-03-23T18:48:22.835Z,4.90
2018-03-23T18:50:50.444Z,4.80
2018-03-23T18:53:18.042Z,4.80
2018-03-23T18:55:46.426Z,4.60
2018-03-23T18:58:14.057Z,4.60
2018-03-23T19:00:42.131Z,4.50
2018-03-23T19:03:09.691Z,4.40
2018-03-23T19:05:37.311Z,4.40
2018-03-23T19:08:04.877Z,4.40
2018-03-23T19:10:32.547Z,4.40
2018-03-23T19:13:00.124Z,4.30
2018-03-23T19:15:27.800Z,4.30
2018-03-23T19:17:56.300Z,4.20
2018-03-23T19:20:23.923Z,4.10
2018-03-23T19:22:52.287Z,4.20
2018-03-23T19:25:19.851Z,4.10
2018-03-23T19:27:47.434Z,4.20
2018-03-23T19:30:15.041Z,4.20
2018-03-23T19:32:43.384Z,4.10
2018-03-23T19:35:10.964Z,4.10
2018-03-23T19:37:38.523Z,4.10
2018-03-23T19:40:06.076Z,4.10
2018-03-23T19:42:33.655Z,4.10
2018-03-23T19:45:01.216Z,4.10
2018-03-23T19:47:28.778Z,4.00
2018-03-23T19:49:56.347Z,3.90
2018-03-23T19:52:23.891Z,3.90
2018-03-23T19:54:51.482Z,3.80
2018-03-23T19:57:19.060Z,3.60
2018-03-23T19:59:47.417Z,3.40
2018-03-23T20:02:15.215Z,3.30
2018-03-23T20:04:43.019Z,3.30
2018-03-23T20:07:10.846Z,3.40
2018-03-23T20:09:38.460Z,3.40
2018-03-23T20:12:06.274Z,3.40
2018-03-23T20:14:33.858Z,3.30
2018-03-23T20:17:01.361Z,3.30
2018-03-23T20:19:28.916Z,3.30
2018-03-23T20:21:56.528Z,3.30
2018-03-23T20:24:28.997Z,3.30
2018-03-23T20:27:11.395Z,3.30
2018-03-23T20:29:38.962Z,3.50
2018-03-23T20:32:12.074Z,3.40
2018-03-23T20:34:39.659Z,3.40
2018-03-23T20:37:07.180Z,3.30
2018-03-23T20:39:34.680Z,3.30
2018-03-23T20:42:03.041Z,3.10
2018-03-23T20:44:30.575Z,3.10
2018-03-23T20:46:58.125Z,3.00
2018-03-23T20:49:25.761Z,3.00
2018-03-23T20:51:53.334Z,3.00
2018-03-23T20:54:20.849Z,3.00
2018-03-23T20:56:48.376Z,2.90
2018-03-23T20:59:15.938Z,2.90
2018-03-23T21:01:43.489Z,2.80
2018-03-23T21:04:11.245Z,2.80
2018-03-23T21:06:39.027Z,2.70
2018-03-23T21:09:06.757Z,2.60
2018-03-23T21:11:34.365Z,2.60
2018-03-23T21:14:02.196Z,2.50
2018-03-23T21:16:30.684Z,2.50
2018-03-23T21:18:58.270Z,2.50
2018-03-23T21:21:25.815Z,2.50
2018-03-23T21:23:53.349Z,2.50
2018-03-23T21:26:20.961Z,2.40
2018-03-23T21:28:49.413Z,2.30
2018-03-23T21:31:17.110Z,2.30
2018-03-23T21:33:44.844Z,2.30
2018-03-23T21:36:12.415Z,2.30
2018-03-23T21:38:39.946Z,2.30
2018-03-23T21:41:07.532Z,2.20
2018-03-23T21:43:35.111Z,2.20
2018-03-23T21:46:02.665Z,2.10
2018-03-23T21:48:30.300Z,2.10
2018-03-23T21:50:57.881Z,2.00
2018-03-23T21:53:25.433Z,2.00
2018-03-23T21:55:53.009Z,2.00
2018-03-23T21:58:20.582Z,2.00
2018-03-23T22:00:48.078Z,2.10
2018-03-23T22:03:15.704Z,2.10
2018-03-23T22:05:43.260Z,2.10
2018-03-23T22:08:10.795Z,2.10
2018-03-23T22:10:39.075Z,2.10
2018-03-23T22:13:06.590Z,2.10
2018-03-23T22:15:34.114Z,2.30
2018-03-23T22:18:01.656Z,2.40
2018-03-23T22:20:29.925Z,2.50
2018-03-23T22:22:57.509Z,2.50
2018-03-23T22:25:25.793Z,2.40
2018-03-23T22:27:53.382Z,2.40
2018-03-23T22:30:20.900Z,2.40
2018-03-23T22:32:49.307Z,2.40
2018-03-23T22:35:16.798Z,2.40
2018-03-23T22:37:44.319Z,2.30
2018-03-23T22:40:11.838Z,2.30
2018-03-23T22:42:39.338Z,2.20
2018-03-23T22:45:06.878Z,2.10
2018-03-23T22:47:34.387Z,2.00
2018-03-23T22:50:01.900Z,1.90
2018-03-23T22:52:29.429Z,1.80
2018-03-23T22:54:56.913Z,1.80
2018-03-23T22:57:24.442Z,1.80
2018-03-23T22:59:51.962Z,1.80
2018-03-23T23:02:19.466Z,1.80
2018-03-23T23:04:46.970Z,1.70
2018-03-23T23:07:14.454Z,1.70
2018-03-23T23:09:41.968Z,1.70
2018-03-23T23:12:09.485Z,1.60
2018-03-23T23:14:36.996Z,1.50
2018-03-23T23:17:04.535Z,1.40
2018-03-23T23:19:32.844Z,1.40
2018-03-23T23:22:00.388Z,1.40
2018-03-23T23:24:27.876Z,1.40
2018-03-23T23:26:55.401Z,1.40
2018-03-23T23:29:22.902Z,1.30
2018-03-23T23:31:51.162Z,1.20
2018-03-23T23:34:18.702Z,1.20
2018-03-23T23:36:46.962Z,1.10
2018-03-23T23:39:14.500Z,1.10
2018-03-23T23:41:41.998Z,1.20
2018-03-23T23:44:09.484Z,1.30
2018-03-23T23:46:37.000Z,1.30
2018-03-23T23:49:04.520Z,1.40
2018-03-23T23:51:32.322Z,1.30
2018-03-23T23:53:59.849Z,1.20
2018-03-23T23:56:27.345Z,1.20
2018-03-23T23:58:54.884Z,1.20
